Time;durP1;ratioP1;P1;durP2;ratioP2;P2;SDS_P1;SDS_P2;PMS_P1;PMS_P2;Temp;Humidity;BMP_temperature;BMP_pressure;BME280_temperature;BME280_humidity;BME280_pressure;Samples;Min_cycle;Max_cycle;Signal;HPM_P1;HPM_P2
2021/04/13 00:00:51;;;;;;;;;;;21.50;35.50;;;;;;500339;237;1408;-45
2021/04/13 00:02:52;;;;;;;;;;;21.50;35.50;;;;;;500285;237;1041;-45
2021/04/13 00:04:53;;;;;;;;;;;21.50;35.40;;;;;;500465;237;1030;-45
2021/04/13 00:06:55;;;;;;;;;;;21.50;35.50;;;;;;500418;237;1212;-45
2021/04/13 00:08:56;;;;;;;;;;;21.50;35.50;;;;;;500396;237;1307;-45
2021/04/13 00:10:57;;;;;;;;;;;21.50;35.40;;;;;;500460;237;2177;-45
2021/04/13 00:12:58;;;;;;;;;;;21.50;35.40;;;;;;500279;237;1161;-45
2021/04/13 00:15:00;;;;;;;;;;;21.50;35.40;;;;;;500375;237;1170;-45
2021/04/13 00:17:02;;;;;;;;;;;21.50;35.40;;;;;;500497;237;1248;-45
2021/04/13 00:19:02;;;;;;;;;;;21.50;35.50;;;;;;500368;237;1293;-45
2021/04/13 00:21:03;;;;;;;;;;;21.50;35.50;;;;;;500345;237;1386;-45
2021/04/13 00:23:05;;;;;;;;;;;21.50;35.40;;;;;;500380;237;1036;-45
2021/04/13 00:25:06;;;;;;;;;;;21.50;35.50;;;;;;500412;237;1083;-45
2021/04/13 00:27:07;;;;;;;;;;;21.50;35.40;;;;;;500306;237;1052;-45
2021/04/13 00:29:09;;;;;;;;;;;21.50;35.40;;;;;;500396;237;1192;-45
2021/04/13 00:31:10;;;;;;;;;;;21.50;35.50;;;;;;500562;237;2145;-45
2021/04/13 00:33:11;;;;;;;;;;;21.50;35.40;;;;;;500408;237;1045;-45
2021/04/13 00:35:16;;;;;;;;;;;21.50;35.40;;;;;;500439;237;1031;-45
2021/04/13 00:37:19;;;;;;;;;;;21.50;35.30;;;;;;500340;237;1449;-45
2021/04/13 00:39:18;;;;;;;;;;;21.60;35.40;;;;;;500325;237;1787;-45
2021/04/13 00:41:19;;;;;;;;;;;21.50;35.30;;;;;;500310;237;1134;-45
2021/04/13 00:43:20;;;;;;;;;;;21.50;35.40;;;;;;500511;237;1075;-45
2021/04/13 00:45:21;;;;;;;;;;;21.60;35.40;;;;;;500451;237;1193;-45
2021/04/13 00:47:23;;;;;;;;;;;21.50;35.40;;;;;;500311;238;1131;-45
2021/04/13 00:49:24;;;;;;;;;;;21.60;35.40;;;;;;500394;237;1053;-45
2021/04/13 00:51:25;;;;;;;;;;;21.60;35.30;;;;;;500292;237;2124;-45
2021/04/13 00:53:27;;;;;;;;;;;21.60;35.30;;;;;;500601;237;1082;-45
2021/04/13 00:55:29;;;;;;;;;;;21.60;35.40;;;;;;500348;237;1054;-45
2021/04/13 00:57:30;;;;;;;;;;;21.60;35.40;;;;;;500348;237;1251;-45
2021/04/13 00:59:32;;;;;;;;;;;21.50;35.40;;;;;;500453;237;1181;-45
2021/04/13 01:01:33;;;;;;;;;;;21.60;35.40;;;;;;500265;237;1199;-45
2021/04/13 01:03:34;;;;;;;;;;;21.60;35.40;;;;;;500437;237;1036;-45
2021/04/13 01:05:35;;;;;;;;;;;21.60;35.40;;;;;;500398;237;1076;-45
2021/04/13 01:07:37;;;;;;;;;;;21.50;35.40;;;;;;500393;237;1177;-45
2021/04/13 01:09:38;;;;;;;;;;;21.50;35.40;;;;;;500485;237;1141;-45
2021/04/13 01:11:39;;;;;;;;;;;21.50;35.40;;;;;;500441;237;2120;-45
2021/04/13 01:13:41;;;;;;;;;;;21.50;35.40;;;;;;500385;237;1109;-46
2021/04/13 01:15:42;;;;;;;;;;;21.60;35.40;;;;;;500389;237;1191;-45
2021/04/13 01:17:43;;;;;;;;;;;21.60;35.40;;;;;;500421;237;1294;-45
2021/04/13 01:19:45;;;;;;;;;;;21.60;35.40;;;;;;500396;237;1145;-45
2021/04/13 01:21:47;;;;;;;;;;;21.60;35.40;;;;;;500281;237;1393;-45
2021/04/13 01:23:51;;;;;;;;;;;21.60;35.30;;;;;;500313;237;1539;-45
2021/04/13 01:25:49;;;;;;;;;;;21.60;35.30;;;;;;500317;237;1415;-45
2021/04/13 01:27:50;;;;;;;;;;;21.60;35.30;;;;;;500465;237;1074;-45
2021/04/13 01:29:52;;;;;;;;;;;21.60;35.30;;;;;;500465;237;1324;-45
2021/04/13 01:31:54;;;;;;;;;;;21.60;35.30;;;;;;500361;237;2187;-45
2021/04/13 01:33:55;;;;;;;;;;;21.60;35.30;;;;;;500410;237;1886;-45
2021/04/13 01:35:58;;;;;;;;;;;21.60;35.30;;;;;;500375;237;2224;-45
2021/04/13 01:38:00;;;;;;;;;;;21.60;35.30;;;;;;500360;237;1382;-45
2021/04/13 01:40:01;;;;;;;;;;;21.60;35.30;;;;;;500368;237;1640;-45
2021/04/13 01:42:00;;;;;;;;;;;21.60;35.30;;;;;;500484;237;1579;-45
2021/04/13 01:44:01;;;;;;;;;;;21.60;35.40;;;;;;500385;237;1052;-45
2021/04/13 01:46:02;;;;;;;;;;;21.60;35.30;;;;;;500370;237;1158;-45
2021/04/13 01:48:03;;;;;;;;;;;21.60;35.30;;;;;;500531;237;1176;-45
2021/04/13 01:50:04;;;;;;;;;;;21.60;35.30;;;;;;500709;237;980;-45
2021/04/13 01:52:06;;;;;;;;;;;21.60;35.40;;;;;;500241;237;2183;-45
2021/04/13 01:54:11;;;;;;;;;;;21.60;35.30;;;;;;500306;238;1096;-45
2021/04/13 01:56:08;;;;;;;;;;;21.60;35.30;;;;;;500345;237;1360;-45
2021/04/13 01:58:09;;;;;;;;;;;21.60;35.30;;;;;;500390;237;1234;-45
2021/04/13 02:00:11;;;;;;;;;;;21.60;35.30;;;;;;500490;237;1196;-45
2021/04/13 02:02:12;;;;;;;;;;;21.60;35.30;;;;;;500046;238;1574;-45
2021/04/13 02:04:15;;;;;;;;;;;21.60;35.30;;;;;;500548;237;952;-45
2021/04/13 02:06:15;;;;;;;;;;;21.60;35.30;;;;;;500400;237;2084;-45
2021/04/13 02:08:19;;;;;;;;;;;21.70;35.30;;;;;;500397;237;1109;-45
2021/04/13 02:10:23;;;;;;;;;;;21.60;35.30;;;;;;500444;237;1687;-45
2021/04/13 02:12:21;;;;;;;;;;;21.60;35.30;;;;;;500314;237;2183;-45
2021/04/13 02:14:22;;;;;;;;;;;21.60;35.30;;;;;;500337;237;1036;-45
2021/04/13 02:16:23;;;;;;;;;;;21.60;35.30;;;;;;500329;237;1212;-45
2021/04/13 02:18:24;;;;;;;;;;;21.60;35.30;;;;;;500467;237;1053;-45
2021/04/13 02:20:26;;;;;;;;;;;21.60;35.30;;;;;;500345;237;1456;-45
2021/04/13 02:22:27;;;;;;;;;;;21.60;35.20;;;;;;500396;238;1214;-45
2021/04/13 02:24:29;;;;;;;;;;;21.60;35.30;;;;;;500406;237;1162;-45
2021/04/13 02:26:30;;;;;;;;;;;21.70;35.30;;;;;;500389;237;1030;-45
2021/04/13 02:28:32;;;;;;;;;;;21.60;35.30;;;;;;500568;238;1084;-45
2021/04/13 02:30:33;;;;;;;;;;;21.60;35.30;;;;;;500483;237;1185;-45
2021/04/13 02:32:34;;;;;;;;;;;21.60;35.30;;;;;;500318;237;2132;-45
2021/04/13 02:34:36;;;;;;;;;;;21.70;35.30;;;;;;500361;238;1120;-45
2021/04/13 02:36:37;;;;;;;;;;;21.70;35.30;;;;;;500399;238;1060;-45
2021/04/13 02:38:39;;;;;;;;;;;21.70;35.30;;;;;;500644;237;1078;-45
2021/04/13 02:40:40;;;;;;;;;;;21.70;35.20;;;;;;500396;238;1083;-45
2021/04/13 02:42:41;;;;;;;;;;;21.70;35.30;;;;;;500390;237;1051;-45
2021/04/13 02:44:43;;;;;;;;;;;21.70;35.30;;;;;;500444;237;1444;-45
2021/04/13 02:46:44;;;;;;;;;;;21.70;35.30;;;;;;500405;237;1109;-45
2021/04/13 02:48:45;;;;;;;;;;;21.60;35.30;;;;;;500569;237;1037;-45
2021/04/13 02:50:46;;;;;;;;;;;21.70;35.30;;;;;;500405;237;1055;-45
2021/04/13 02:52:48;;;;;;;;;;;21.60;35.30;;;;;;500379;238;2188;-45
2021/04/13 02:54:49;;;;;;;;;;;21.70;35.30;;;;;;500500;237;1039;-45
2021/04/13 02:56:50;;;;;;;;;;;21.70;35.20;;;;;;500320;237;1051;-45
2021/04/13 02:58:52;;;;;;;;;;;21.70;35.20;;;;;;500489;237;1059;-45
2021/04/13 03:00:53;;;;;;;;;;;21.70;35.20;;;;;;500484;237;1278;-45
2021/04/13 03:02:54;;;;;;;;;;;21.70;35.20;;;;;;500506;237;960;-45
2021/04/13 03:04:56;;;;;;;;;;;21.70;35.20;;;;;;500455;237;1075;-45
2021/04/13 03:06:57;;;;;;;;;;;21.70;35.20;;;;;;500306;238;1204;-45
2021/04/13 03:08:58;;;;;;;;;;;21.70;35.30;;;;;;500488;238;1044;-45
2021/04/13 03:10:59;;;;;;;;;;;21.70;35.30;;;;;;500725;237;1156;-45
2021/04/13 03:13:01;;;;;;;;;;;21.70;35.30;;;;;;500364;238;2187;-45
2021/04/13 03:15:03;;;;;;;;;;;21.70;35.30;;;;;;500416;237;1041;-45
2021/04/13 03:17:05;;;;;;;;;;;21.70;35.20;;;;;;500382;237;1151;-45
2021/04/13 03:19:06;;;;;;;;;;;21.70;35.20;;;;;;500409;237;1027;-45
2021/04/13 03:21:07;;;;;;;;;;;21.70;35.20;;;;;;500435;237;1438;-45
2021/04/13 03:23:08;;;;;;;;;;;21.70;35.20;;;;;;500404;237;1057;-45
2021/04/13 03:25:10;;;;;;;;;;;21.70;35.20;;;;;;500341;237;1050;-45
2021/04/13 03:27:11;;;;;;;;;;;21.30;35.80;;;;;;500333;237;1075;-45
2021/04/13 03:29:13;;;;;;;;;;;20.70;36.90;;;;;;500363;237;1105;-45
2021/04/13 03:31:14;;;;;;;;;;;20.20;37.80;;;;;;500393;237;1238;-45
2021/04/13 03:33:15;;;;;;;;;;;19.90;38.50;;;;;;500350;237;2144;-45
2021/04/13 03:35:16;;;;;;;;;;;19.60;39.20;;;;;;500579;237;1026;-45
2021/04/13 03:37:18;;;;;;;;;;;19.40;39.60;;;;;;500332;237;1061;-45
2021/04/13 03:39:19;;;;;;;;;;;19.30;39.70;;;;;;500427;237;1046;-45
2021/04/13 03:41:20;;;;;;;;;;;19.20;40.00;;;;;;500631;237;1032;-45
2021/04/13 03:43:22;;;;;;;;;;;19.10;40.20;;;;;;500282;237;1128;-45
2021/04/13 03:45:23;;;;;;;;;;;19.00;40.40;;;;;;500308;237;1087;-44
2021/04/13 03:47:24;;;;;;;;;;;18.90;40.50;;;;;;500262;237;1334;-45
2021/04/13 03:49:27;;;;;;;;;;;18.90;40.60;;;;;;500435;237;1073;-45
2021/04/13 03:51:28;;;;;;;;;;;18.80;40.70;;;;;;500379;237;1091;-44
2021/04/13 03:53:29;;;;;;;;;;;18.70;40.80;;;;;;500317;237;2183;-45
2021/04/13 03:55:31;;;;;;;;;;;18.70;41.00;;;;;;500356;237;1040;-45
2021/04/13 03:57:32;;;;;;;;;;;18.60;41.00;;;;;;500293;237;1203;-45
2021/04/13 03:59:33;;;;;;;;;;;18.60;41.00;;;;;;500316;237;1065;-45
2021/04/13 04:01:35;;;;;;;;;;;18.60;41.10;;;;;;500315;237;1282;-45
2021/04/13 04:03:39;;;;;;;;;;;18.60;41.10;;;;;;500379;237;1368;-44
2021/04/13 04:05:37;;;;;;;;;;;18.50;41.20;;;;;;500357;237;1263;-45
2021/04/13 04:07:39;;;;;;;;;;;18.50;41.30;;;;;;500354;237;1104;-45
2021/04/13 04:09:40;;;;;;;;;;;18.40;41.30;;;;;;500525;237;1047;-45
2021/04/13 04:11:41;;;;;;;;;;;18.40;41.40;;;;;;500255;237;1121;-45
2021/04/13 04:13:42;;;;;;;;;;;18.40;41.50;;;;;;500491;237;2128;-45
2021/04/13 04:15:43;;;;;;;;;;;18.40;41.50;;;;;;500712;237;1029;-45
2021/04/13 04:17:45;;;;;;;;;;;18.30;41.50;;;;;;500311;237;1178;-45
2021/04/13 04:19:46;;;;;;;;;;;18.30;41.50;;;;;;500553;237;1036;-45
2021/04/13 04:21:47;;;;;;;;;;;18.30;41.60;;;;;;500270;237;1147;-45
2021/04/13 04:23:48;;;;;;;;;;;18.20;41.60;;;;;;500380;237;971;-45
2021/04/13 04:25:50;;;;;;;;;;;18.20;41.60;;;;;;500532;237;1113;-44
2021/04/13 04:27:51;;;;;;;;;;;18.20;41.60;;;;;;500186;237;1186;-45
2021/04/13 04:29:52;;;;;;;;;;;18.20;41.70;;;;;;500658;237;1038;-45
2021/04/13 04:31:54;;;;;;;;;;;18.20;41.80;;;;;;500515;237;1163;-45
2021/04/13 04:33:55;;;;;;;;;;;18.20;41.70;;;;;;500257;237;2187;-45
2021/04/13 04:35:56;;;;;;;;;;;18.10;41.80;;;;;;500457;237;1199;-45
2021/04/13 04:37:57;;;;;;;;;;;18.10;41.80;;;;;;500254;237;1225;-45
2021/04/13 04:39:59;;;;;;;;;;;18.10;41.80;;;;;;500415;237;1074;-45
2021/04/13 04:42:06;;;;;;;;;;;18.10;41.90;;;;;;500370;237;1088;-45
2021/04/13 04:44:02;;;;;;;;;;;18.00;41.90;;;;;;500220;237;1778;-45
2021/04/13 04:46:03;;;;;;;;;;;18.10;41.90;;;;;;500134;237;1178;-45
2021/04/13 04:48:04;;;;;;;;;;;18.00;41.90;;;;;;500031;237;1177;-45
2021/04/13 04:50:05;;;;;;;;;;;18.00;41.90;;;;;;500114;237;1084;-44
2021/04/13 04:52:06;;;;;;;;;;;18.00;41.90;;;;;;500096;237;1155;-44
2021/04/13 04:54:08;;;;;;;;;;;18.00;41.90;;;;;;500171;237;2100;-45
2021/04/13 04:56:09;;;;;;;;;;;17.90;41.90;;;;;;500052;237;1327;-45
2021/04/13 04:58:10;;;;;;;;;;;17.90;41.90;;;;;;500154;237;1058;-45
2021/04/13 05:00:11;;;;;;;;;;;17.90;42.00;;;;;;500184;237;1099;-45
2021/04/13 05:02:13;;;;;;;;;;;17.90;41.90;;;;;;500163;237;1294;-45
2021/04/13 05:04:14;;;;;;;;;;;17.90;42.00;;;;;;500231;237;1068;-45
2021/04/13 05:06:15;;;;;;;;;;;17.90;42.00;;;;;;500092;237;1488;-45
2021/04/13 05:08:17;;;;;;;;;;;17.90;42.00;;;;;;500305;237;1029;-45
2021/04/13 05:10:18;;;;;;;;;;;17.90;42.10;;;;;;500622;237;1055;-45
2021/04/13 05:12:19;;;;;;;;;;;17.90;42.00;;;;;;500136;237;1175;-45
2021/04/13 05:14:20;;;;;;;;;;;17.80;42.00;;;;;;500112;237;2160;-45
2021/04/13 05:16:22;;;;;;;;;;;17.80;42.00;;;;;;500117;237;1231;-45
2021/04/13 05:18:23;;;;;;;;;;;17.80;42.00;;;;;;500225;237;1159;-45
2021/04/13 05:20:24;;;;;;;;;;;17.80;42.00;;;;;;500101;237;1055;-45
2021/04/13 05:22:26;;;;;;;;;;;17.80;42.00;;;;;;500087;237;1122;-45
2021/04/13 05:24:27;;;;;;;;;;;17.80;42.00;;;;;;500044;237;1097;-45
2021/04/13 05:26:28;;;;;;;;;;;17.80;42.00;;;;;;499988;237;1323;-45
2021/04/13 05:28:30;;;;;;;;;;;17.80;42.00;;;;;;500231;237;1107;-45
2021/04/13 05:30:31;;;;;;;;;;;17.70;42.00;;;;;;500243;237;1211;-45
2021/04/13 05:32:32;;;;;;;;;;;17.70;42.00;;;;;;500141;237;1139;-45
2021/04/13 05:34:34;;;;;;;;;;;17.70;42.00;;;;;;500079;237;2188;-45
2021/04/13 05:36:35;;;;;;;;;;;17.70;42.00;;;;;;500119;237;1239;-44
2021/04/13 05:38:37;;;;;;;;;;;17.70;42.00;;;;;;500121;237;1074;-45
2021/04/13 05:40:38;;;;;;;;;;;17.70;42.10;;;;;;500083;237;1230;-45
2021/04/13 05:42:39;;;;;;;;;;;17.70;42.00;;;;;;500015;237;1118;-45
2021/04/13 05:44:40;;;;;;;;;;;17.70;41.90;;;;;;500012;237;1150;-45
2021/04/13 05:46:42;;;;;;;;;;;17.70;42.00;;;;;;499945;237;1295;-45
2021/04/13 05:48:43;;;;;;;;;;;17.70;41.90;;;;;;500006;237;1175;-45
2021/04/13 05:50:44;;;;;;;;;;;18.10;41.20;;;;;;499948;237;1229;-45
2021/04/13 05:52:46;;;;;;;;;;;18.50;40.20;;;;;;499876;237;2168;-45
2021/04/13 05:54:47;;;;;;;;;;;18.90;39.40;;;;;;499928;237;1078;-45
2021/04/13 05:56:48;;;;;;;;;;;19.10;38.90;;;;;;499879;237;1310;-45
2021/04/13 05:58:49;;;;;;;;;;;19.30;38.50;;;;;;500142;237;1155;-45
2021/04/13 06:00:51;;;;;;;;;;;19.40;38.20;;;;;;500004;237;1648;-45
2021/04/13 06:02:52;;;;;;;;;;;19.60;38.00;;;;;;500043;237;1179;-45
2021/04/13 06:04:53;;;;;;;;;;;19.70;37.80;;;;;;499892;237;1148;-45
2021/04/13 06:06:55;;;;;;;;;;;19.70;37.70;;;;;;499758;237;1174;-45
2021/04/13 06:08:56;;;;;;;;;;;19.80;37.60;;;;;;499908;237;1145;-45
2021/04/13 06:10:57;;;;;;;;;;;19.80;37.40;;;;;;499828;237;1144;-45
2021/04/13 06:13:00;;;;;;;;;;;19.90;37.30;;;;;;499729;237;2200;-45
2021/04/13 06:15:00;;;;;;;;;;;19.90;37.20;;;;;;499810;237;2372;-45
2021/04/13 06:17:01;;;;;;;;;;;20.00;37.20;;;;;;499843;237;1157;-45
2021/04/13 06:19:02;;;;;;;;;;;20.00;37.10;;;;;;499894;237;1143;-45
2021/04/13 06:21:04;;;;;;;;;;;20.10;37.00;;;;;;499890;237;1378;-45
2021/04/13 06:23:05;;;;;;;;;;;20.10;37.00;;;;;;499868;237;1067;-45
2021/04/13 06:25:06;;;;;;;;;;;20.10;36.90;;;;;;499775;237;1126;-45
2021/04/13 06:27:07;;;;;;;;;;;20.20;36.80;;;;;;499682;237;1077;-44
2021/04/13 06:29:09;;;;;;;;;;;20.20;36.80;;;;;;499729;237;1053;-45
2021/04/13 06:31:10;;;;;;;;;;;20.20;36.70;;;;;;499666;237;1148;-45
2021/04/13 06:33:11;;;;;;;;;;;20.20;36.70;;;;;;499669;237;2184;-45
2021/04/13 06:35:13;;;;;;;;;;;20.30;36.70;;;;;;499748;237;1063;-45
2021/04/13 06:37:14;;;;;;;;;;;20.30;36.60;;;;;;499533;237;1214;-45
2021/04/13 06:39:15;;;;;;;;;;;20.30;36.50;;;;;;499740;237;1275;-45
2021/04/13 06:41:17;;;;;;;;;;;20.40;36.50;;;;;;499782;237;1101;-45
2021/04/13 06:43:18;;;;;;;;;;;20.40;36.40;;;;;;499775;237;1194;-45
2021/04/13 06:45:19;;;;;;;;;;;20.40;36.30;;;;;;499667;237;1071;-45
2021/04/13 06:47:21;;;;;;;;;;;20.40;36.30;;;;;;499595;237;1136;-45
2021/04/13 06:49:23;;;;;;;;;;;20.50;36.30;;;;;;499589;237;1152;-45
2021/04/13 06:51:26;;;;;;;;;;;20.50;36.20;;;;;;499473;237;1756;-45
2021/04/13 06:53:25;;;;;;;;;;;20.50;36.20;;;;;;499511;237;2345;-45
2021/04/13 06:55:26;;;;;;;;;;;20.50;36.10;;;;;;499523;237;1126;-45
2021/04/13 06:57:27;;;;;;;;;;;20.60;36.20;;;;;;499565;237;1065;-45
2021/04/13 06:59:29;;;;;;;;;;;20.60;36.20;;;;;;499654;237;1191;-45
2021/04/13 07:01:30;;;;;;;;;;;20.60;36.10;;;;;;499600;237;1266;-45
2021/04/13 07:03:31;;;;;;;;;;;20.70;36.10;;;;;;499556;237;1194;-45
2021/04/13 07:05:33;;;;;;;;;;;20.60;36.00;;;;;;499483;237;1171;-45
2021/04/13 07:07:34;;;;;;;;;;;20.70;36.00;;;;;;499295;237;1311;-45
2021/04/13 07:09:35;;;;;;;;;;;20.70;35.90;;;;;;499404;237;1093;-45
2021/04/13 07:11:36;;;;;;;;;;;20.70;36.00;;;;;;499460;237;1206;-45
2021/04/13 07:13:38;;;;;;;;;;;20.70;35.90;;;;;;499343;237;2188;-45
2021/04/13 07:15:39;;;;;;;;;;;20.70;35.90;;;;;;499326;237;1092;-45
2021/04/13 07:17:40;;;;;;;;;;;20.70;35.90;;;;;;499359;237;1157;-45
2021/04/13 07:19:41;;;;;;;;;;;20.80;35.90;;;;;;499426;237;1190;-45
2021/04/13 07:21:43;;;;;;;;;;;20.80;35.90;;;;;;499260;237;1221;-45
2021/04/13 07:23:44;;;;;;;;;;;20.80;35.80;;;;;;499497;237;1124;-45
2021/04/13 07:25:45;;;;;;;;;;;20.80;35.80;;;;;;499654;237;1155;-45
2021/04/13 07:27:47;;;;;;;;;;;20.80;35.80;;;;;;499453;237;1168;-45
2021/04/13 07:29:48;;;;;;;;;;;20.90;35.80;;;;;;499465;237;1079;-45
2021/04/13 07:31:51;;;;;;;;;;;20.90;35.80;;;;;;499525;237;1229;-45
2021/04/13 07:33:51;;;;;;;;;;;20.90;35.80;;;;;;499497;237;2180;-45
2021/04/13 07:35:54;;;;;;;;;;;20.90;35.70;;;;;;499450;237;1187;-45
2021/04/13 07:37:53;;;;;;;;;;;20.90;35.80;;;;;;500081;237;1356;-45
2021/04/13 07:39:55;;;;;;;;;;;20.90;35.80;;;;;;499554;237;1062;-45
2021/04/13 07:41:56;;;;;;;;;;;20.90;35.70;;;;;;499463;237;1220;-45
2021/04/13 07:43:57;;;;;;;;;;;20.90;35.60;;;;;;499480;237;1046;-45
2021/04/13 07:45:59;;;;;;;;;;;20.90;35.70;;;;;;499454;237;1235;-45
2021/04/13 07:48:01;;;;;;;;;;;20.90;35.70;;;;;;499475;237;1286;-45
2021/04/13 07:50:03;;;;;;;;;;;20.90;35.60;;;;;;499436;237;1186;-45
2021/04/13 07:52:03;;;;;;;;;;;20.90;35.60;;;;;;499465;237;1415;-45
2021/04/13 07:54:05;;;;;;;;;;;20.90;35.60;;;;;;499983;237;2180;-45
2021/04/13 07:56:06;;;;;;;;;;;20.90;35.60;;;;;;499272;237;1223;-45
2021/04/13 07:58:07;;;;;;;;;;;21.00;35.60;;;;;;499847;237;1168;-45
2021/04/13 08:00:08;;;;;;;;;;;21.00;35.60;;;;;;499470;237;1388;-45
2021/04/13 08:02:10;;;;;;;;;;;21.00;35.50;;;;;;499602;237;1116;-45
2021/04/13 08:04:11;;;;;;;;;;;21.00;35.50;;;;;;500178;237;1125;-45
2021/04/13 08:06:12;;;;;;;;;;;21.00;35.50;;;;;;499621;237;1332;-45
2021/04/13 08:08:14;;;;;;;;;;;21.00;35.50;;;;;;499696;237;1071;-45
2021/04/13 08:10:15;;;;;;;;;;;21.00;35.50;;;;;;499627;237;1059;-45
2021/04/13 08:12:17;;;;;;;;;;;21.00;35.50;;;;;;499651;237;1264;-45
2021/04/13 08:14:17;;;;;;;;;;;21.00;35.50;;;;;;499483;237;2187;-45
2021/04/13 08:16:19;;;;;;;;;;;21.10;35.50;;;;;;499481;237;1183;-45
2021/04/13 08:18:20;;;;;;;;;;;21.10;35.50;;;;;;499511;237;1099;-45
2021/04/13 08:20:22;;;;;;;;;;;21.10;35.50;;;;;;499376;237;1199;-45
2021/04/13 08:22:23;;;;;;;;;;;21.10;35.50;;;;;;499237;237;1256;-45
2021/04/13 08:24:24;;;;;;;;;;;21.10;35.50;;;;;;499504;237;1091;-45
2021/04/13 08:26:25;;;;;;;;;;;21.10;35.50;;;;;;499514;237;1112;-45
2021/04/13 08:28:27;;;;;;;;;;;21.10;35.50;;;;;;499521;237;1074;-45
2021/04/13 08:30:28;;;;;;;;;;;21.10;35.40;;;;;;499549;237;1107;-45
2021/04/13 08:34:49;;;;;;;;;;;21.10;35.40;;;;;;499501;237;2132;-44
2021/04/13 08:36:51;;;;;;;;;;;21.10;35.40;;;;;;499390;237;1111;-44
2021/04/13 08:38:53;;;;;;;;;;;21.10;35.40;;;;;;499514;237;1898;-44
2021/04/13 08:40:53;;;;;;;;;;;21.20;35.40;;;;;;499463;237;1501;-44
2021/04/13 08:42:55;;;;;;;;;;;21.10;35.40;;;;;;499351;237;1127;-44
2021/04/13 08:44:56;;;;;;;;;;;21.10;35.40;;;;;;499356;237;1136;-44
2021/04/13 08:46:57;;;;;;;;;;;21.20;35.40;;;;;;499421;237;1318;-44
2021/04/13 08:48:59;;;;;;;;;;;21.20;35.30;;;;;;499357;237;1202;-44
2021/04/13 08:51:00;;;;;;;;;;;21.20;35.40;;;;;;499273;237;1201;-44
2021/04/13 08:53:03;;;;;;;;;;;21.20;35.30;;;;;;499271;237;1218;-44
2021/04/13 08:55:04;;;;;;;;;;;21.20;35.30;;;;;;499777;237;2128;-44
2021/04/13 08:57:05;;;;;;;;;;;21.20;35.30;;;;;;500155;237;1117;-44
2021/04/13 08:59:07;;;;;;;;;;;21.20;35.30;;;;;;499766;237;1070;-44
2021/04/13 09:01:08;;;;;;;;;;;21.20;35.30;;;;;;499579;237;1171;-44
2021/04/13 09:03:09;;;;;;;;;;;21.20;35.30;;;;;;499573;238;1155;-44
2021/04/13 09:05:11;;;;;;;;;;;21.20;35.30;;;;;;499620;237;1151;-44
2021/04/13 09:07:12;;;;;;;;;;;21.20;35.30;;;;;;499432;237;1223;-44
2021/04/13 09:09:13;;;;;;;;;;;21.20;35.30;;;;;;499212;237;1084;-44
2021/04/13 09:11:15;;;;;;;;;;;21.20;35.30;;;;;;499342;237;1330;-44
2021/04/13 09:13:16;;;;;;;;;;;21.30;35.30;;;;;;499325;237;1081;-44
2021/04/13 09:15:17;;;;;;;;;;;21.20;35.20;;;;;;499433;237;2197;-44
2021/04/13 09:17:19;;;;;;;;;;;21.20;35.30;;;;;;499420;237;1213;-44
2021/04/13 09:19:20;;;;;;;;;;;21.30;35.30;;;;;;499305;237;1079;-44
2021/04/13 09:21:23;;;;;;;;;;;21.20;35.30;;;;;;499290;237;1194;-44
2021/04/13 09:23:23;;;;;;;;;;;21.30;35.30;;;;;;499441;237;2119;-44
2021/04/13 09:25:24;;;;;;;;;;;21.30;35.30;;;;;;499535;237;1293;-44
2021/04/13 09:27:25;;;;;;;;;;;21.30;35.30;;;;;;499583;237;1276;-44
2021/04/13 09:29:27;;;;;;;;;;;21.30;35.30;;;;;;499568;237;1212;-44
2021/04/13 09:31:31;;;;;;;;;;;21.30;35.20;;;;;;499513;237;1345;-44
2021/04/13 09:33:32;;;;;;;;;;;21.30;35.30;;;;;;499376;237;1258;-44
2021/04/13 09:35:34;;;;;;;;;;;21.30;35.20;;;;;;499196;237;2188;-44
2021/04/13 09:37:35;;;;;;;;;;;21.30;35.20;;;;;;499186;237;2323;-44
2021/04/13 09:39:36;;;;;;;;;;;21.30;35.20;;;;;;499574;237;1154;-44
2021/04/13 09:41:37;;;;;;;;;;;21.30;35.20;;;;;;499422;237;1197;-44
2021/04/13 09:43:39;;;;;;;;;;;21.30;35.20;;;;;;499555;237;1090;-44
2021/04/13 09:45:40;;;;;;;;;;;21.30;35.20;;;;;;499671;237;1089;-44
2021/04/13 09:47:41;;;;;;;;;;;21.30;35.20;;;;;;499543;237;1227;-44
2021/04/13 09:49:42;;;;;;;;;;;21.30;35.20;;;;;;499560;237;1158;-44
2021/04/13 09:51:44;;;;;;;;;;;21.40;35.20;;;;;;499507;237;1186;-44
2021/04/13 09:53:45;;;;;;;;;;;21.40;35.20;;;;;;499621;237;1135;-44
2021/04/13 09:55:46;;;;;;;;;;;21.40;35.20;;;;;;499621;237;2183;-44
2021/04/13 09:57:48;;;;;;;;;;;21.30;35.10;;;;;;499505;237;1055;-44
2021/04/13 09:59:49;;;;;;;;;;;21.40;35.30;;;;;;499607;237;1157;-44
2021/04/13 10:01:50;;;;;;;;;;;21.40;35.30;;;;;;499514;237;1147;-44
2021/04/13 10:03:51;;;;;;;;;;;21.40;35.20;;;;;;499524;238;1130;-44
2021/04/13 10:05:53;;;;;;;;;;;21.40;35.20;;;;;;499418;237;1172;-44
2021/04/13 10:07:54;;;;;;;;;;;21.40;35.10;;;;;;499648;237;1135;-44
2021/04/13 10:09:55;;;;;;;;;;;21.40;35.10;;;;;;499547;237;1133;-44
2021/04/13 10:11:57;;;;;;;;;;;21.40;35.10;;;;;;499565;237;1172;-44
2021/04/13 10:13:58;;;;;;;;;;;21.40;35.20;;;;;;499518;237;1062;-44
2021/04/13 10:15:59;;;;;;;;;;;21.40;35.20;;;;;;498774;237;2195;-44
2021/04/13 10:18:01;;;;;;;;;;;21.40;35.20;;;;;;499492;237;1087;-44
2021/04/13 10:20:02;;;;;;;;;;;21.40;35.20;;;;;;499695;237;1195;-44
2021/04/13 10:22:03;;;;;;;;;;;21.40;35.10;;;;;;499598;237;1250;-43
2021/04/13 10:24:05;;;;;;;;;;;21.40;35.10;;;;;;499569;237;1129;-44
2021/04/13 10:26:06;;;;;;;;;;;21.40;35.10;;;;;;499116;237;1343;-44
2021/04/13 10:28:07;;;;;;;;;;;21.40;35.10;;;;;;499557;237;1078;-44
2021/04/13 10:30:08;;;;;;;;;;;21.40;35.10;;;;;;499579;237;1171;-44
2021/04/13 10:32:10;;;;;;;;;;;21.50;35.10;;;;;;499484;237;1220;-44
2021/04/13 10:34:11;;;;;;;;;;;21.40;35.10;;;;;;499597;237;1131;-44
2021/04/13 10:36:12;;;;;;;;;;;21.40;35.10;;;;;;499461;237;2240;-44
2021/04/13 10:38:13;;;;;;;;;;;21.50;35.10;;;;;;499544;237;1211;-44
2021/04/13 10:40:15;;;;;;;;;;;21.50;35.10;;;;;;499346;237;1169;-44
2021/04/13 10:42:16;;;;;;;;;;;21.40;35.10;;;;;;499478;237;1155;-44
2021/04/13 10:44:17;;;;;;;;;;;21.50;35.10;;;;;;499523;237;1064;-44
2021/04/13 10:46:19;;;;;;;;;;;21.50;35.20;;;;;;499484;237;1132;-44
2021/04/13 10:48:20;;;;;;;;;;;21.40;35.10;;;;;;499622;237;1087;-44
2021/04/13 10:50:21;;;;;;;;;;;21.50;35.10;;;;;;499645;237;1200;-44
2021/04/13 10:52:22;;;;;;;;;;;21.50;35.10;;;;;;499534;237;1193;-44
2021/04/13 10:54:24;;;;;;;;;;;21.50;35.10;;;;;;499522;237;2191;-44
2021/04/13 10:56:25;;;;;;;;;;;21.50;35.10;;;;;;499493;237;1336;-44
2021/04/13 10:58:26;;;;;;;;;;;21.50;35.10;;;;;;499497;237;1078;-44
2021/04/13 11:00:28;;;;;;;;;;;21.50;35.10;;;;;;499394;237;1137;-44
2021/04/13 11:02:29;;;;;;;;;;;21.50;35.00;;;;;;499422;237;1276;-44
2021/04/13 11:04:31;;;;;;;;;;;21.50;35.00;;;;;;499506;237;1190;-44
2021/04/13 11:06:32;;;;;;;;;;;21.50;35.00;;;;;;499407;237;1231;-44
2021/04/13 11:08:33;;;;;;;;;;;21.50;35.00;;;;;;499445;237;1140;-44
2021/04/13 11:10:34;;;;;;;;;;;21.50;35.00;;;;;;498621;237;1313;-44
2021/04/13 11:12:36;;;;;;;;;;;21.50;35.00;;;;;;499648;237;1212;-44
2021/04/13 11:14:37;;;;;;;;;;;21.50;35.10;;;;;;499520;237;2180;-44
2021/04/13 11:16:42;;;;;;;;;;;21.50;35.10;;;;;;499532;237;1178;-44
2021/04/13 11:18:40;;;;;;;;;;;21.50;35.10;;;;;;499503;237;1832;-44
2021/04/13 11:20:41;;;;;;;;;;;21.50;35.00;;;;;;499576;237;1076;-44
2021/04/13 11:22:44;;;;;;;;;;;21.50;35.00;;;;;;499705;237;1092;-44
2021/04/13 11:24:45;;;;;;;;;;;21.60;35.10;;;;;;499583;237;1055;-44
2021/04/13 11:26:46;;;;;;;;;;;21.60;35.00;;;;;;499779;237;1230;-44
2021/04/13 11:28:48;;;;;;;;;;;21.50;35.00;;;;;;499564;237;1149;-44
2021/04/13 11:30:49;;;;;;;;;;;21.50;35.00;;;;;;499512;237;1211;-44
2021/04/13 11:32:50;;;;;;;;;;;21.60;35.00;;;;;;499470;237;1184;-44
2021/04/13 11:34:55;;;;;;;;;;;21.60;35.00;;;;;;499459;238;2180;-44
2021/04/13 11:36:53;;;;;;;;;;;21.60;35.00;;;;;;499451;237;1294;-44
2021/04/13 11:38:54;;;;;;;;;;;21.60;34.90;;;;;;499362;238;1081;-44
2021/04/13 11:40:56;;;;;;;;;;;21.60;34.90;;;;;;499614;237;1099;-44
2021/04/13 11:42:57;;;;;;;;;;;21.60;34.90;;;;;;499617;237;1060;-44
2021/04/13 11:44:58;;;;;;;;;;;21.60;34.90;;;;;;499597;237;1184;-47
2021/04/13 11:47:00;;;;;;;;;;;21.60;34.90;;;;;;499496;237;1077;-47
2021/04/13 11:49:01;;;;;;;;;;;21.60;34.90;;;;;;499512;237;1086;-46
2021/04/13 11:51:02;;;;;;;;;;;21.60;34.90;;;;;;499561;237;1082;-46
2021/04/13 11:53:03;;;;;;;;;;;21.60;34.80;;;;;;499529;237;1224;-46
2021/04/13 11:55:05;;;;;;;;;;;21.60;34.90;;;;;;499393;237;2188;-44
2021/04/13 11:57:06;;;;;;;;;;;21.60;34.80;;;;;;499244;237;1095;-44
2021/04/13 11:59:07;;;;;;;;;;;21.60;34.80;;;;;;499496;237;1186;-44